sensor_id;sensor_type;location;lat;lon;timestamp;pressure;altitude;pressure_sealevel;temperature;humidity
76229;BME280;65021;53.174;18.160;2023-07-29T00:01:49;100391.30;;;14.27;100.00
76229;BME280;65021;53.174;18.160;2023-07-29T00:04:16;100393.92;;;14.23;100.00
76229;BME280;65021;53.174;18.160;2023-07-29T00:06:42;100393.86;;;14.22;100.00
76229;BME280;65021;53.174;18.160;2023-07-29T00:09:09;100400.18;;;14.20;100.00
76229;BME280;65021;53.174;18.160;2023-07-29T00:11:35;100396.43;;;14.18;100.00
76229;BME280;65021;53.174;18.160;2023-07-29T00:14:02;100395.59;;;14.15;100.00
76229;BME280;65021;53.174;18.160;2023-07-29T00:16:28;100400.57;;;14.11;100.00
76229;BME280;65021;53.174;18.160;2023-07-29T00:18:55;100404.58;;;14.07;100.00
76229;BME280;65021;53.174;18.160;2023-07-29T00:21:22;100397.93;;;14.03;100.00
76229;BME280;65021;53.174;18.160;2023-07-29T00:23:48;100399.98;;;13.99;100.00
76229;BME280;65021;53.174;18.160;2023-07-29T00:26:15;100403.34;;;13.92;100.00
76229;BME280;65021;53.174;18.160;2023-07-29T00:28:42;100406.29;;;13.84;100.00
76229;BME280;65021;53.174;18.160;2023-07-29T00:31:08;100406.83;;;13.77;100.00
76229;BME280;65021;53.174;18.160;2023-07-29T00:33:35;100405.19;;;13.69;100.00
76229;BME280;65021;53.174;18.160;2023-07-29T00:36:01;100407.02;;;13.61;100.00
76229;BME280;65021;53.174;18.160;2023-07-29T00:38:29;100406.60;;;13.55;100.00
76229;BME280;65021;53.174;18.160;2023-07-29T00:41:00;100410.27;;;13.48;100.00
76229;BME280;65021;53.174;18.160;2023-07-29T00:43:28;100413.20;;;13.40;100.00
76229;BME280;65021;53.174;18.160;2023-07-29T00:45:55;100415.02;;;13.34;100.00
76229;BME280;65021;53.174;18.160;2023-07-29T00:48:24;100414.15;;;13.27;100.00
76229;BME280;65021;53.174;18.160;2023-07-29T00:50:51;100411.62;;;13.23;100.00
76229;BME280;65021;53.174;18.160;2023-07-29T00:53:18;100416.49;;;13.16;100.00
76229;BME280;65021;53.174;18.160;2023-07-29T00:55:45;100418.37;;;13.10;100.00
76229;BME280;65021;53.174;18.160;2023-07-29T00:58:11;100419.86;;;13.03;100.00
76229;BME280;65021;53.174;18.160;2023-07-29T01:00:38;100421.50;;;12.96;100.00
76229;BME280;65021;53.174;18.160;2023-07-29T01:03:05;100413.91;;;12.87;100.00
76229;BME280;65021;53.174;18.160;2023-07-29T01:05:42;100414.17;;;12.85;100.00
76229;BME280;65021;53.174;18.160;2023-07-29T01:08:29;100411.06;;;12.79;100.00
76229;BME280;65021;53.174;18.160;2023-07-29T01:11:17;100409.40;;;12.72;100.00
76229;BME280;65021;53.174;18.160;2023-07-29T01:13:50;100410.73;;;12.68;100.00
76229;BME280;65021;53.174;18.160;2023-07-29T01:16:25;100410.36;;;12.65;100.00
76229;BME280;65021;53.174;18.160;2023-07-29T01:18:57;100404.20;;;12.62;100.00
76229;BME280;65021;53.174;18.160;2023-07-29T01:21:26;100411.42;;;12.57;100.00
76229;BME280;65021;53.174;18.160;2023-07-29T01:23:57;100409.59;;;12.51;100.00
76229;BME280;65021;53.174;18.160;2023-07-29T01:26:24;100406.99;;;12.46;100.00
76229;BME280;65021;53.174;18.160;2023-07-29T01:28:51;100404.63;;;12.42;100.00
76229;BME280;65021;53.174;18.160;2023-07-29T01:31:27;100403.61;;;12.41;100.00
76229;BME280;65021;53.174;18.160;2023-07-29T01:34:09;100404.75;;;12.37;100.00
76229;BME280;65021;53.174;18.160;2023-07-29T01:36:37;100403.19;;;12.37;100.00
76229;BME280;65021;53.174;18.160;2023-07-29T01:39:07;100399.23;;;12.37;100.00
76229;BME280;65021;53.174;18.160;2023-07-29T01:41:35;100398.05;;;12.36;100.00
76229;BME280;65021;53.174;18.160;2023-07-29T01:44:02;100394.83;;;12.38;100.00
76229;BME280;65021;53.174;18.160;2023-07-29T01:46:33;100393.16;;;12.39;100.00
76229;BME280;65021;53.174;18.160;2023-07-29T01:48:59;100398.84;;;12.37;100.00
76229;BME280;65021;53.174;18.160;2023-07-29T01:51:26;100400.87;;;12.33;100.00
76229;BME280;65021;53.174;18.160;2023-07-29T01:53:52;100404.36;;;12.30;100.00
76229;BME280;65021;53.174;18.160;2023-07-29T01:56:19;100405.55;;;12.25;100.00
76229;BME280;65021;53.174;18.160;2023-07-29T01:58:45;100409.59;;;12.22;100.00
76229;BME280;65021;53.174;18.160;2023-07-29T02:01:12;100412.27;;;12.17;100.00
76229;BME280;65021;53.174;18.160;2023-07-29T02:03:39;100414.29;;;12.12;100.00
76229;BME280;65021;53.174;18.160;2023-07-29T02:06:05;100412.67;;;12.06;100.00
76229;BME280;65021;53.174;18.160;2023-07-29T02:08:32;100415.97;;;12.00;100.00
76229;BME280;65021;53.174;18.160;2023-07-29T02:10:58;100420.54;;;11.95;100.00
76229;BME280;65021;53.174;18.160;2023-07-29T02:13:25;100422.40;;;11.94;100.00
76229;BME280;65021;53.174;18.160;2023-07-29T02:15:51;100424.61;;;11.95;100.00
76229;BME280;65021;53.174;18.160;2023-07-29T02:18:18;100425.05;;;12.00;100.00
76229;BME280;65021;53.174;18.160;2023-07-29T02:20:44;100424.22;;;12.01;100.00
76229;BME280;65021;53.174;18.160;2023-07-29T02:23:15;100428.43;;;11.99;100.00
76229;BME280;65021;53.174;18.160;2023-07-29T02:25:43;100427.34;;;11.96;100.00
76229;BME280;65021;53.174;18.160;2023-07-29T02:28:10;100421.98;;;11.94;100.00
76229;BME280;65021;53.174;18.160;2023-07-29T02:30:36;100423.78;;;11.92;100.00
76229;BME280;65021;53.174;18.160;2023-07-29T02:33:03;100422.61;;;11.90;100.00
76229;BME280;65021;53.174;18.160;2023-07-29T02:35:30;100421.55;;;11.84;100.00
76229;BME280;65021;53.174;18.160;2023-07-29T02:37:56;100421.70;;;11.78;100.00
76229;BME280;65021;53.174;18.160;2023-07-29T02:40:23;100423.44;;;11.73;100.00
76229;BME280;65021;53.174;18.160;2023-07-29T02:42:51;100430.81;;;11.70;100.00
76229;BME280;65021;53.174;18.160;2023-07-29T02:45:17;100428.07;;;11.69;100.00
76229;BME280;65021;53.174;18.160;2023-07-29T02:47:44;100428.37;;;11.67;100.00
76229;BME280;65021;53.174;18.160;2023-07-29T02:50:10;100426.20;;;11.65;100.00
76229;BME280;65021;53.174;18.160;2023-07-29T02:52:38;100428.06;;;11.62;100.00
76229;BME280;65021;53.174;18.160;2023-07-29T02:55:05;100430.70;;;11.63;100.00
76229;BME280;65021;53.174;18.160;2023-07-29T02:57:32;100432.09;;;11.67;100.00
76229;BME280;65021;53.174;18.160;2023-07-29T02:59:58;100437.75;;;11.66;100.00
76229;BME280;65021;53.174;18.160;2023-07-29T03:02:25;100443.30;;;11.66;100.00
76229;BME280;65021;53.174;18.160;2023-07-29T03:04:51;100444.36;;;11.65;100.00
76229;BME280;65021;53.174;18.160;2023-07-29T03:07:18;100451.87;;;11.65;100.00
76229;BME280;65021;53.174;18.160;2023-07-29T03:09:44;100458.86;;;11.63;100.00
76229;BME280;65021;53.174;18.160;2023-07-29T03:12:11;100462.37;;;11.62;100.00
76229;BME280;65021;53.174;18.160;2023-07-29T03:14:37;100462.38;;;11.63;100.00
76229;BME280;65021;53.174;18.160;2023-07-29T03:17:05;100463.10;;;11.67;100.00
76229;BME280;65021;53.174;18.160;2023-07-29T03:19:31;100462.20;;;11.69;100.00
76229;BME280;65021;53.174;18.160;2023-07-29T03:21:58;100461.02;;;11.73;100.00
76229;BME280;65021;53.174;18.160;2023-07-29T03:24:24;100458.66;;;11.81;100.00
76229;BME280;65021;53.174;18.160;2023-07-29T03:26:51;100448.94;;;12.37;100.00
76229;BME280;65021;53.174;18.160;2023-07-29T03:29:17;100445.84;;;13.07;100.00
76229;BME280;65021;53.174;18.160;2023-07-29T03:31:44;100449.86;;;13.63;99.72
76229;BME280;65021;53.174;18.160;2023-07-29T03:34:10;100450.24;;;14.12;98.36
76229;BME280;65021;53.174;18.160;2023-07-29T03:36:38;100448.20;;;14.56;97.31
76229;BME280;65021;53.174;18.160;2023-07-29T03:39:05;100445.77;;;14.79;95.81
76229;BME280;65021;53.174;18.160;2023-07-29T03:41:32;100445.65;;;14.82;95.30
76229;BME280;65021;53.174;18.160;2023-07-29T03:43:58;100449.64;;;14.75;94.80
76229;BME280;65021;53.174;18.160;2023-07-29T03:46:25;100450.42;;;14.62;94.74
76229;BME280;65021;53.174;18.160;2023-07-29T03:48:51;100449.98;;;14.54;94.99
76229;BME280;65021;53.174;18.160;2023-07-29T03:51:18;100448.37;;;14.51;94.85
76229;BME280;65021;53.174;18.160;2023-07-29T03:53:45;100448.19;;;14.49;94.56
76229;BME280;65021;53.174;18.160;2023-07-29T03:56:12;100448.52;;;14.50;94.49
76229;BME280;65021;53.174;18.160;2023-07-29T03:58:38;100453.84;;;14.50;94.59
76229;BME280;65021;53.174;18.160;2023-07-29T04:01:05;100452.11;;;14.51;94.83
76229;BME280;65021;53.174;18.160;2023-07-29T04:03:33;100457.30;;;14.64;95.58
76229;BME280;65021;53.174;18.160;2023-07-29T04:06:00;100457.61;;;14.92;95.99
76229;BME280;65021;53.174;18.160;2023-07-29T04:08:27;100461.09;;;15.17;95.26
76229;BME280;65021;53.174;18.160;2023-07-29T04:10:53;100455.48;;;15.32;94.19
76229;BME280;65021;53.174;18.160;2023-07-29T04:13:20;100457.83;;;15.44;93.99
76229;BME280;65021;53.174;18.160;2023-07-29T04:15:47;100460.69;;;15.60;94.45
76229;BME280;65021;53.174;18.160;2023-07-29T04:18:14;100464.73;;;15.83;94.56
76229;BME280;65021;53.174;18.160;2023-07-29T04:20:40;100464.98;;;16.06;94.13
76229;BME280;65021;53.174;18.160;2023-07-29T04:23:07;100459.30;;;16.26;92.73
76229;BME280;65021;53.174;18.160;2023-07-29T04:25:33;100456.91;;;16.31;91.47
76229;BME280;65021;53.174;18.160;2023-07-29T04:28:00;100460.46;;;16.36;91.99
76229;BME280;65021;53.174;18.160;2023-07-29T04:30:27;100460.32;;;16.48;92.48
76229;BME280;65021;53.174;18.160;2023-07-29T04:32:53;100463.38;;;16.68;92.54
76229;BME280;65021;53.174;18.160;2023-07-29T04:35:20;100462.21;;;16.97;93.06
76229;BME280;65021;53.174;18.160;2023-07-29T04:37:46;100467.11;;;17.28;93.21
76229;BME280;65021;53.174;18.160;2023-07-29T04:40:14;100466.23;;;17.52;92.58
76229;BME280;65021;53.174;18.160;2023-07-29T04:42:41;100471.00;;;17.80;92.33
76229;BME280;65021;53.174;18.160;2023-07-29T04:45:07;100473.29;;;18.06;92.61
76229;BME280;65021;53.174;18.160;2023-07-29T04:47:34;100473.73;;;18.25;92.44
76229;BME280;65021;53.174;18.160;2023-07-29T04:50:00;100475.75;;;18.34;91.58
76229;BME280;65021;53.174;18.160;2023-07-29T04:52:27;100475.59;;;18.44;92.21
76229;BME280;65021;53.174;18.160;2023-07-29T04:54:53;100469.27;;;18.63;91.56
76229;BME280;65021;53.174;18.160;2023-07-29T04:57:20;100472.95;;;18.82;91.38
76229;BME280;65021;53.174;18.160;2023-07-29T04:59:46;100478.83;;;19.00;91.18
76229;BME280;65021;53.174;18.160;2023-07-29T05:02:13;100477.16;;;19.20;91.41
76229;BME280;65021;53.174;18.160;2023-07-29T05:04:39;100475.78;;;19.44;91.54
76229;BME280;65021;53.174;18.160;2023-07-29T05:07:06;100481.04;;;19.68;91.07
76229;BME280;65021;53.174;18.160;2023-07-29T05:09:32;100477.89;;;19.97;91.46
76229;BME280;65021;53.174;18.160;2023-07-29T05:11:59;100477.70;;;20.26;91.20
76229;BME280;65021;53.174;18.160;2023-07-29T05:14:26;100481.56;;;20.56;91.04
76229;BME280;65021;53.174;18.160;2023-07-29T05:16:52;100475.91;;;20.76;89.85
76229;BME280;65021;53.174;18.160;2023-07-29T05:19:19;100473.42;;;20.96;88.36
76229;BME280;65021;53.174;18.160;2023-07-29T05:21:45;100473.49;;;21.07;87.51
76229;BME280;65021;53.174;18.160;2023-07-29T05:24:12;100468.33;;;21.19;87.28
76229;BME280;65021;53.174;18.160;2023-07-29T05:26:38;100466.48;;;21.26;87.01
76229;BME280;65021;53.174;18.160;2023-07-29T05:29:05;100463.61;;;21.34;87.31
76229;BME280;65021;53.174;18.160;2023-07-29T05:31:31;100466.77;;;21.46;87.37
76229;BME280;65021;53.174;18.160;2023-07-29T05:33:58;100468.47;;;21.66;86.76
76229;BME280;65021;53.174;18.160;2023-07-29T05:36:25;100472.45;;;21.77;85.78
76229;BME280;65021;53.174;18.160;2023-07-29T05:38:52;100472.41;;;21.92;86.57
76229;BME280;65021;53.174;18.160;2023-07-29T05:41:18;100477.84;;;21.98;84.81
76229;BME280;65021;53.174;18.160;2023-07-29T05:43:45;100475.78;;;22.04;84.51
76229;BME280;65021;53.174;18.160;2023-07-29T05:46:11;100470.00;;;22.08;84.02
76229;BME280;65021;53.174;18.160;2023-07-29T05:48:38;100470.45;;;22.16;83.13
76229;BME280;65021;53.174;18.160;2023-07-29T05:51:04;100468.52;;;22.21;83.54
76229;BME280;65021;53.174;18.160;2023-07-29T05:53:34;100470.83;;;22.27;82.74
76229;BME280;65021;53.174;18.160;2023-07-29T05:56:00;100472.90;;;22.40;82.14
76229;BME280;65021;53.174;18.160;2023-07-29T05:58:27;100472.17;;;22.47;80.92
76229;BME280;65021;53.174;18.160;2023-07-29T06:00:53;100473.48;;;22.43;80.11
76229;BME280;65021;53.174;18.160;2023-07-29T06:03:20;100473.95;;;22.48;81.05
76229;BME280;65021;53.174;18.160;2023-07-29T06:05:46;100476.95;;;22.55;80.10
76229;BME280;65021;53.174;18.160;2023-07-29T06:08:13;100483.27;;;22.70;80.07
76229;BME280;65021;53.174;18.160;2023-07-29T06:10:39;100483.01;;;22.83;79.23
76229;BME280;65021;53.174;18.160;2023-07-29T06:13:06;100482.27;;;22.89;79.00
76229;BME280;65021;53.174;18.160;2023-07-29T06:15:32;100479.13;;;22.94;78.51
76229;BME280;65021;53.174;18.160;2023-07-29T06:17:59;100479.15;;;23.00;77.72
76229;BME280;65021;53.174;18.160;2023-07-29T06:20:25;100483.08;;;23.09;77.18
76229;BME280;65021;53.174;18.160;2023-07-29T06:22:52;100482.55;;;23.23;76.53
76229;BME280;65021;53.174;18.160;2023-07-29T06:25:18;100482.61;;;23.31;76.79
76229;BME280;65021;53.174;18.160;2023-07-29T06:27:45;100479.82;;;23.30;76.02
76229;BME280;65021;53.174;18.160;2023-07-29T06:30:12;100480.72;;;23.34;75.89
76229;BME280;65021;53.174;18.160;2023-07-29T06:32:38;100475.32;;;23.46;75.76
76229;BME280;65021;53.174;18.160;2023-07-29T06:35:05;100474.98;;;23.57;75.55
76229;BME280;65021;53.174;18.160;2023-07-29T06:37:32;100478.42;;;23.72;75.79
76229;BME280;65021;53.174;18.160;2023-07-29T06:39:59;100478.34;;;23.89;75.43
76229;BME280;65021;53.174;18.160;2023-07-29T06:42:26;100473.79;;;24.01;73.87
76229;BME280;65021;53.174;18.160;2023-07-29T06:44:52;100475.70;;;24.10;73.05
76229;BME280;65021;53.174;18.160;2023-07-29T06:47:19;100472.98;;;24.16;73.31
76229;BME280;65021;53.174;18.160;2023-07-29T06:49:45;100476.09;;;24.15;73.53
76229;BME280;65021;53.174;18.160;2023-07-29T06:52:12;100481.58;;;24.18;72.81
76229;BME280;65021;53.174;18.160;2023-07-29T06:54:39;100480.38;;;24.28;72.36
76229;BME280;65021;53.174;18.160;2023-07-29T06:57:06;100481.03;;;24.43;72.11
76229;BME280;65021;53.174;18.160;2023-07-29T06:59:32;100479.52;;;24.68;71.86
76229;BME280;65021;53.174;18.160;2023-07-29T07:01:59;100469.73;;;25.12;70.74
76229;BME280;65021;53.174;18.160;2023-07-29T07:04:26;100469.73;;;25.53;69.91
76229;BME280;65021;53.174;18.160;2023-07-29T07:06:52;100461.98;;;25.78;68.49
76229;BME280;65021;53.174;18.160;2023-07-29T07:09:19;100458.88;;;25.83;67.79
76229;BME280;65021;53.174;18.160;2023-07-29T07:11:46;100460.11;;;25.60;68.09
76229;BME280;65021;53.174;18.160;2023-07-29T07:14:12;100458.91;;;25.42;67.88
76229;BME280;65021;53.174;18.160;2023-07-29T07:16:39;100455.30;;;25.26;67.63
76229;BME280;65021;53.174;18.160;2023-07-29T07:19:05;100452.97;;;25.18;67.16
76229;BME280;65021;53.174;18.160;2023-07-29T07:21:32;100457.84;;;25.11;67.11
76229;BME280;65021;53.174;18.160;2023-07-29T07:23:59;100455.96;;;25.04;66.40
76229;BME280;65021;53.174;18.160;2023-07-29T07:26:25;100465.34;;;24.90;66.27
76229;BME280;65021;53.174;18.160;2023-07-29T07:28:52;100467.13;;;24.79;66.64
76229;BME280;65021;53.174;18.160;2023-07-29T07:31:18;100470.66;;;24.80;66.27
76229;BME280;65021;53.174;18.160;2023-07-29T07:33:45;100468.29;;;24.74;66.29
76229;BME280;65021;53.174;18.160;2023-07-29T07:36:11;100462.53;;;24.72;65.78
76229;BME280;65021;53.174;18.160;2023-07-29T07:38:38;100458.82;;;24.73;65.77
76229;BME280;65021;53.174;18.160;2023-07-29T07:41:04;100460.05;;;24.78;65.80
76229;BME280;65021;53.174;18.160;2023-07-29T07:43:31;100459.74;;;24.79;65.65
76229;BME280;65021;53.174;18.160;2023-07-29T07:45:58;100452.89;;;24.83;65.54
76229;BME280;65021;53.174;18.160;2023-07-29T07:48:29;100456.98;;;24.83;65.30
76229;BME280;65021;53.174;18.160;2023-07-29T07:50:56;100457.23;;;24.88;64.87
76229;BME280;65021;53.174;18.160;2023-07-29T07:53:22;100449.16;;;24.96;64.16
76229;BME280;65021;53.174;18.160;2023-07-29T07:55:49;100446.58;;;25.01;64.51
76229;BME280;65021;53.174;18.160;2023-07-29T07:58:15;100444.58;;;24.99;64.04
76229;BME280;65021;53.174;18.160;2023-07-29T08:00:42;100440.98;;;25.01;64.12
76229;BME280;65021;53.174;18.160;2023-07-29T08:03:09;100439.54;;;25.10;64.62
76229;BME280;65021;53.174;18.160;2023-07-29T08:05:35;100441.27;;;25.13;64.30
76229;BME280;65021;53.174;18.160;2023-07-29T08:08:02;100435.75;;;25.11;62.69
76229;BME280;65021;53.174;18.160;2023-07-29T08:10:29;100434.95;;;25.05;62.78
76229;BME280;65021;53.174;18.160;2023-07-29T08:12:55;100432.17;;;25.09;62.72
76229;BME280;65021;53.174;18.160;2023-07-29T08:15:22;100429.41;;;25.15;62.86
76229;BME280;65021;53.174;18.160;2023-07-29T08:17:49;100431.52;;;25.20;62.52
76229;BME280;65021;53.174;18.160;2023-07-29T08:20:15;100428.29;;;25.23;62.35
76229;BME280;65021;53.174;18.160;2023-07-29T08:22:42;100426.20;;;25.21;62.04
76229;BME280;65021;53.174;18.160;2023-07-29T08:25:08;100426.93;;;25.24;62.39
76229;BME280;65021;53.174;18.160;2023-07-29T08:27:35;100423.39;;;25.31;61.92
76229;BME280;65021;53.174;18.160;2023-07-29T08:30:01;100424.49;;;25.35;61.82
76229;BME280;65021;53.174;18.160;2023-07-29T08:32:28;100421.36;;;25.34;60.77
76229;BME280;65021;53.174;18.160;2023-07-29T08:34:55;100421.70;;;25.34;60.65
76229;BME280;65021;53.174;18.160;2023-07-29T08:37:21;100417.18;;;25.42;60.92
76229;BME280;65021;53.174;18.160;2023-07-29T08:39:48;100413.50;;;25.46;60.12
76229;BME280;65021;53.174;18.160;2023-07-29T08:42:16;100412.42;;;25.50;59.76
76229;BME280;65021;53.174;18.160;2023-07-29T08:44:47;100412.09;;;25.57;60.06
76229;BME280;65021;53.174;18.160;2023-07-29T08:47:15;100406.78;;;25.70;59.60
76229;BME280;65021;53.174;18.160;2023-07-29T08:49:44;100404.42;;;25.80;59.53
76229;BME280;65021;53.174;18.160;2023-07-29T08:52:11;100401.95;;;25.91;59.01
76229;BME280;65021;53.174;18.160;2023-07-29T08:54:38;100396.37;;;26.00;58.40
76229;BME280;65021;53.174;18.160;2023-07-29T08:57:06;100389.01;;;26.11;57.33
76229;BME280;65021;53.174;18.160;2023-07-29T08:59:32;100391.81;;;26.08;56.92
76229;BME280;65021;53.174;18.160;2023-07-29T09:01:59;100396.98;;;26.11;57.76
76229;BME280;65021;53.174;18.160;2023-07-29T09:04:26;100396.20;;;26.19;57.22
76229;BME280;65021;53.174;18.160;2023-07-29T09:06:53;100396.14;;;26.31;56.96
76229;BME280;65021;53.174;18.160;2023-07-29T09:09:22;100392.05;;;26.48;56.63
76229;BME280;65021;53.174;18.160;2023-07-29T09:11:49;100386.51;;;26.70;56.01
76229;BME280;65021;53.174;18.160;2023-07-29T09:14:16;100386.00;;;26.89;54.79
76229;BME280;65021;53.174;18.160;2023-07-29T09:16:43;100381.63;;;26.98;53.99
76229;BME280;65021;53.174;18.160;2023-07-29T09:19:10;100382.04;;;27.01;53.92
76229;BME280;65021;53.174;18.160;2023-07-29T09:21:40;100382.83;;;27.06;53.70
76229;BME280;65021;53.174;18.160;2023-07-29T09:24:08;100381.16;;;27.11;53.43
76229;BME280;65021;53.174;18.160;2023-07-29T09:26:36;100380.06;;;26.95;50.32
76229;BME280;65021;53.174;18.160;2023-07-29T09:29:02;100379.51;;;26.67;51.34
76229;BME280;65021;53.174;18.160;2023-07-29T09:31:29;100379.60;;;26.57;51.23
76229;BME280;65021;53.174;18.160;2023-07-29T09:34:01;100381.69;;;26.73;51.07
76229;BME280;65021;53.174;18.160;2023-07-29T09:36:33;100378.04;;;26.89;51.08
76229;BME280;65021;53.174;18.160;2023-07-29T09:39:00;100380.23;;;27.07;50.48
76229;BME280;65021;53.174;18.160;2023-07-29T09:41:30;100376.68;;;27.20;50.06
76229;BME280;65021;53.174;18.160;2023-07-29T09:43:59;100374.77;;;27.31;49.40
76229;BME280;65021;53.174;18.160;2023-07-29T09:46:32;100372.06;;;27.48;49.46
76229;BME280;65021;53.174;18.160;2023-07-29T09:49:02;100370.90;;;27.53;48.41
76229;BME280;65021;53.174;18.160;2023-07-29T09:51:29;100368.13;;;27.38;48.47
76229;BME280;65021;53.174;18.160;2023-07-29T09:54:02;100373.60;;;27.15;48.96
76229;BME280;65021;53.174;18.160;2023-07-29T09:56:29;100358.52;;;27.27;49.00
76229;BME280;65021;53.174;18.160;2023-07-29T09:58:57;100359.57;;;27.41;48.45
76229;BME280;65021;53.174;18.160;2023-07-29T10:01:24;100359.52;;;27.43;48.43
76229;BME280;65021;53.174;18.160;2023-07-29T10:03:51;100353.06;;;27.34;48.10
76229;BME280;65021;53.174;18.160;2023-07-29T10:06:19;100353.59;;;27.29;48.35
76229;BME280;65021;53.174;18.160;2023-07-29T10:08:47;100354.50;;;27.36;47.79
76229;BME280;65021;53.174;18.160;2023-07-29T10:11:14;100356.33;;;27.39;48.08
76229;BME280;65021;53.174;18.160;2023-07-29T10:13:40;100352.55;;;27.26;48.07
76229;BME280;65021;53.174;18.160;2023-07-29T10:16:07;100352.80;;;27.11;48.45
76229;BME280;65021;53.174;18.160;2023-07-29T10:18:34;100351.38;;;27.01;48.45
76229;BME280;65021;53.174;18.160;2023-07-29T10:21:02;100346.38;;;27.08;48.25
76229;BME280;65021;53.174;18.160;2023-07-29T10:23:35;100342.27;;;27.26;48.11
76229;BME280;65021;53.174;18.160;2023-07-29T10:26:05;100341.70;;;27.30;48.25
76229;BME280;65021;53.174;18.160;2023-07-29T10:28:32;100346.00;;;27.19;48.47
76229;BME280;65021;53.174;18.160;2023-07-29T10:30:59;100341.83;;;27.13;48.32
76229;BME280;65021;53.174;18.160;2023-07-29T10:33:26;100336.09;;;27.33;47.65
76229;BME280;65021;53.174;18.160;2023-07-29T10:35:53;100331.53;;;27.52;47.21
76229;BME280;65021;53.174;18.160;2023-07-29T10:38:22;100333.77;;;27.63;46.83
76229;BME280;65021;53.174;18.160;2023-07-29T10:40:54;100334.97;;;27.76;46.98
76229;BME280;65021;53.174;18.160;2023-07-29T10:43:38;100334.20;;;27.95;47.19
76229;BME280;65021;53.174;18.160;2023-07-29T10:46:34;100341.98;;;28.16;46.38
76229;BME280;65021;53.174;18.160;2023-07-29T10:49:01;100337.33;;;28.46;46.36
76229;BME280;65021;53.174;18.160;2023-07-29T10:51:35;100325.17;;;28.82;45.26
76229;BME280;65021;53.174;18.160;2023-07-29T10:54:04;100324.39;;;29.14;44.61
76229;BME280;65021;53.174;18.160;2023-07-29T10:56:39;100327.76;;;29.37;45.20
76229;BME280;65021;53.174;18.160;2023-07-29T11:01:40;100316.36;;;29.50;43.96
76229;BME280;65021;53.174;18.160;2023-07-29T11:07:23;100306.44;;;29.16;43.61
76229;BME280;65021;53.174;18.160;2023-07-29T11:10:00;100305.89;;;28.71;44.29
76229;BME280;65021;53.174;18.160;2023-07-29T11:15:14;100300.35;;;28.44;44.26
76229;BME280;65021;53.174;18.160;2023-07-29T11:17:52;100304.17;;;28.16;44.32
76229;BME280;65021;53.174;18.160;2023-07-29T11:20:25;100297.09;;;28.06;44.97
76229;BME280;65021;53.174;18.160;2023-07-29T11:22:54;100290.39;;;27.99;45.05
76229;BME280;65021;53.174;18.160;2023-07-29T11:25:22;100287.27;;;27.77;45.09
76229;BME280;65021;53.174;18.160;2023-07-29T11:27:52;100287.80;;;27.69;44.92
76229;BME280;65021;53.174;18.160;2023-07-29T11:30:19;100279.36;;;27.82;43.93
76229;BME280;65021;53.174;18.160;2023-07-29T11:32:46;100277.56;;;27.92;44.38
76229;BME280;65021;53.174;18.160;2023-07-29T11:35:15;100274.67;;;28.08;44.61
76229;BME280;65021;53.174;18.160;2023-07-29T11:37:50;100279.58;;;28.01;44.45
76229;BME280;65021;53.174;18.160;2023-07-29T11:40:18;100278.30;;;27.96;44.64
76229;BME280;65021;53.174;18.160;2023-07-29T11:42:46;100273.90;;;28.06;44.42
76229;BME280;65021;53.174;18.160;2023-07-29T11:45:14;100269.63;;;28.16;43.85
76229;BME280;65021;53.174;18.160;2023-07-29T11:47:40;100260.40;;;28.16;44.43
76229;BME280;65021;53.174;18.160;2023-07-29T11:50:09;100259.61;;;28.13;44.25
76229;BME280;65021;53.174;18.160;2023-07-29T11:52:37;100258.88;;;28.13;43.80
76229;BME280;65021;53.174;18.160;2023-07-29T11:55:05;100246.80;;;28.22;43.98
76229;BME280;65021;53.174;18.160;2023-07-29T11:57:37;100244.23;;;28.36;43.97
76229;BME280;65021;53.174;18.160;2023-07-29T12:00:08;100244.52;;;28.38;43.56
76229;BME280;65021;53.174;18.160;2023-07-29T12:02:38;100240.70;;;28.52;43.65
76229;BME280;65021;53.174;18.160;2023-07-29T12:05:05;100232.73;;;28.71;43.39
76229;BME280;65021;53.174;18.160;2023-07-29T12:07:33;100229.62;;;28.78;43.36
76229;BME280;65021;53.174;18.160;2023-07-29T12:10:00;100233.09;;;28.81;43.21
76229;BME280;65021;53.174;18.160;2023-07-29T12:12:27;100229.27;;;28.91;43.21
76229;BME280;65021;53.174;18.160;2023-07-29T12:14:54;100222.83;;;28.91;43.30
76229;BME280;65021;53.174;18.160;2023-07-29T12:17:21;100222.40;;;28.86;42.79
76229;BME280;65021;53.174;18.160;2023-07-29T12:19:48;100220.55;;;28.78;42.76
76229;BME280;65021;53.174;18.160;2023-07-29T12:22:19;100215.42;;;28.88;42.94
76229;BME280;65021;53.174;18.160;2023-07-29T12:24:47;100205.91;;;29.06;42.66
76229;BME280;65021;53.174;18.160;2023-07-29T12:27:17;100199.58;;;29.14;42.74
76229;BME280;65021;53.174;18.160;2023-07-29T12:29:44;100198.49;;;28.99;42.45
76229;BME280;65021;53.174;18.160;2023-07-29T12:32:12;100189.64;;;28.78;42.99
76229;BME280;65021;53.174;18.160;2023-07-29T12:34:40;100187.11;;;28.64;42.87
76229;BME280;65021;53.174;18.160;2023-07-29T12:37:07;100185.39;;;28.52;42.99
76229;BME280;65021;53.174;18.160;2023-07-29T12:39:38;100184.19;;;28.53;43.04
76229;BME280;65021;53.174;18.160;2023-07-29T12:42:06;100186.19;;;28.51;43.19
76229;BME280;65021;53.174;18.160;2023-07-29T12:44:34;100186.90;;;28.54;43.70
76229;BME280;65021;53.174;18.160;2023-07-29T12:47:02;100176.83;;;28.61;44.04
76229;BME280;65021;53.174;18.160;2023-07-29T12:49:30;100175.45;;;28.58;43.78